createdAt,value
2017-08-15T00:01:56.407Z,3.50
2017-08-15T00:04:24.479Z,3.33
2017-08-15T00:06:52.572Z,3.67
2017-08-15T00:09:20.642Z,3.53
2017-08-15T00:11:48.728Z,3.40
2017-08-15T00:14:16.809Z,3.70
2017-08-15T00:16:44.886Z,3.30
2017-08-15T00:19:12.975Z,3.50
2017-08-15T00:21:41.063Z,3.60
2017-08-15T00:24:09.136Z,3.10
2017-08-15T00:26:37.217Z,3.20
2017-08-15T00:29:05.292Z,3.40
2017-08-15T00:31:33.388Z,2.77
2017-08-15T00:34:01.450Z,4.10
2017-08-15T00:36:29.535Z,3.30
2017-08-15T00:38:57.626Z,3.63
2017-08-15T00:41:25.702Z,3.30
2017-08-15T00:43:53.783Z,3.13
2017-08-15T00:46:21.852Z,2.70
2017-08-15T00:48:49.941Z,3.40
2017-08-15T00:51:18.024Z,2.60
2017-08-15T00:53:46.140Z,3.10
2017-08-15T00:56:14.214Z,2.70
2017-08-15T00:58:42.301Z,3.30
2017-08-15T01:01:10.366Z,2.60
2017-08-15T01:03:38.450Z,3.30
2017-08-15T01:06:06.531Z,3.10
2017-08-15T01:08:34.607Z,3.50
2017-08-15T01:11:02.671Z,3.27
2017-08-15T01:13:30.746Z,2.87
2017-08-15T01:15:58.844Z,3.10
2017-08-15T01:18:26.925Z,3.20
2017-08-15T01:20:55.001Z,3.33
2017-08-15T01:23:23.071Z,4.30
2017-08-15T01:25:51.151Z,3.50
2017-08-15T01:28:19.227Z,4.30
2017-08-15T01:30:47.303Z,4.57
2017-08-15T01:33:15.387Z,3.90
2017-08-15T01:35:43.475Z,4.83
2017-08-15T01:38:11.547Z,3.70
2017-08-15T01:40:39.632Z,3.23
2017-08-15T01:43:07.707Z,2.70
2017-08-15T01:45:35.806Z,3.40
2017-08-15T01:48:03.879Z,3.17
2017-08-15T01:50:31.964Z,3.20
2017-08-15T01:53:00.040Z,5.03
2017-08-15T01:55:28.116Z,3.30
2017-08-15T01:57:56.195Z,3.60
2017-08-15T02:00:24.267Z,3.00
2017-08-15T02:02:52.346Z,3.47
2017-08-15T02:05:20.436Z,3.83
2017-08-15T02:07:48.502Z,3.50
2017-08-15T02:10:16.583Z,3.20
2017-08-15T02:12:44.664Z,4.33
2017-08-15T02:15:12.849Z,3.53
2017-08-15T02:17:40.927Z,4.87
2017-08-15T02:20:09.007Z,3.50
2017-08-15T02:22:37.082Z,3.90
2017-08-15T02:25:05.176Z,4.17
2017-08-15T02:27:33.262Z,3.30
2017-08-15T02:30:01.344Z,3.30
2017-08-15T02:32:29.406Z,3.27
2017-08-15T02:34:57.489Z,3.20
2017-08-15T02:37:25.559Z,2.83
2017-08-15T02:39:53.700Z,3.40
2017-08-15T02:42:21.784Z,4.10
2017-08-15T02:44:50.121Z,3.60
2017-08-15T02:47:18.426Z,3.50
2017-08-15T02:49:46.522Z,4.30
2017-08-15T02:52:14.638Z,3.50
2017-08-15T02:54:42.713Z,4.03
2017-08-15T02:57:10.794Z,3.20
2017-08-15T02:59:38.871Z,3.70
2017-08-15T03:02:07.047Z,4.03
2017-08-15T03:04:35.327Z,3.50
2017-08-15T03:07:03.419Z,3.73
2017-08-15T03:09:31.488Z,3.80
2017-08-15T03:11:59.575Z,3.50
2017-08-15T03:14:27.805Z,3.73
2017-08-15T03:16:55.890Z,3.27
2017-08-15T03:19:23.965Z,5.20
2017-08-15T03:21:52.042Z,3.73
2017-08-15T03:24:23.918Z,4.67
2017-08-15T03:26:52.224Z,4.50
2017-08-15T03:29:20.311Z,4.10
2017-08-15T03:31:48.375Z,3.90
2017-08-15T03:34:16.464Z,4.00
2017-08-15T03:36:44.554Z,4.37
2017-08-15T03:39:12.640Z,4.57
2017-08-15T03:41:40.708Z,3.60
2017-08-15T03:44:08.791Z,3.80
2017-08-15T03:46:36.866Z,3.90
2017-08-15T03:49:04.963Z,3.77
2017-08-15T03:51:33.038Z,4.33
2017-08-15T03:54:01.116Z,4.30
2017-08-15T03:56:29.191Z,3.87
2017-08-15T03:58:57.566Z,4.43
2017-08-15T04:01:25.650Z,4.20
2017-08-15T04:03:53.726Z,4.67
2017-08-15T04:06:21.801Z,4.60
2017-08-15T04:08:49.878Z,4.23
2017-08-15T04:11:17.960Z,4.23
2017-08-15T04:13:46.039Z,4.80
2017-08-15T04:16:14.119Z,3.70
2017-08-15T04:18:42.185Z,4.20
2017-08-15T04:21:10.281Z,4.80
2017-08-15T04:23:38.356Z,5.90
2017-08-15T04:26:06.432Z,9.70
2017-08-15T04:28:34.498Z,12.30
2017-08-15T04:31:02.587Z,14.60
2017-08-15T04:33:30.650Z,6.37
2017-08-15T04:35:58.730Z,5.53
2017-08-15T04:38:26.798Z,5.30
2017-08-15T04:40:54.981Z,5.30
2017-08-15T04:43:23.051Z,6.13
2017-08-15T04:45:51.310Z,6.20
2017-08-15T04:48:19.407Z,7.43
2017-08-15T04:50:47.492Z,8.20
2017-08-15T04:53:15.578Z,6.03
2017-08-15T04:55:43.744Z,5.30
2017-08-15T04:58:11.834Z,5.20
2017-08-15T05:00:39.907Z,5.27
2017-08-15T05:03:07.983Z,5.63
2017-08-15T05:08:10.538Z,6.03
2017-08-15T05:10:38.607Z,4.67
2017-08-15T05:13:06.850Z,5.50
2017-08-15T05:15:34.923Z,4.90
2017-08-15T05:18:02.995Z,4.40
2017-08-15T05:20:31.070Z,4.43
2017-08-15T05:22:59.156Z,4.40
2017-08-15T05:25:27.236Z,4.83
2017-08-15T05:27:55.319Z,5.13
2017-08-15T05:30:23.413Z,5.50
2017-08-15T05:32:51.493Z,4.60
2017-08-15T05:35:19.570Z,4.30
2017-08-15T05:37:47.651Z,4.43
2017-08-15T05:40:15.725Z,3.93
2017-08-15T05:42:44.575Z,4.80
2017-08-15T05:45:12.706Z,4.30
2017-08-15T05:47:40.856Z,4.23
2017-08-15T05:50:08.927Z,4.60
2017-08-15T05:52:37.010Z,4.67
2017-08-15T05:55:05.079Z,5.13
2017-08-15T05:57:33.154Z,5.77
2017-08-15T06:00:01.231Z,5.13
2017-08-15T06:02:29.315Z,4.17
2017-08-15T06:04:57.386Z,5.47
2017-08-15T06:07:25.478Z,4.10
2017-08-15T06:09:53.560Z,5.07
2017-08-15T06:12:21.639Z,4.23
2017-08-15T06:14:49.758Z,3.53
2017-08-15T06:17:17.830Z,3.87
2017-08-15T06:19:45.904Z,3.90
2017-08-15T06:22:13.985Z,4.20
2017-08-15T06:24:42.087Z,7.27
2017-08-15T06:27:10.242Z,3.83
2017-08-15T06:29:38.337Z,3.97
2017-08-15T06:32:06.417Z,4.33
2017-08-15T06:34:35.268Z,4.20
2017-08-15T06:37:03.349Z,4.30
2017-08-15T06:39:31.544Z,4.20
2017-08-15T06:41:59.626Z,4.40
2017-08-15T06:44:27.723Z,3.83
2017-08-15T06:46:55.794Z,3.87
2017-08-15T06:49:24.057Z,4.67
2017-08-15T06:51:52.155Z,3.80
2017-08-15T06:54:20.239Z,3.90
2017-08-15T06:56:48.322Z,3.67
2017-08-15T06:59:16.391Z,3.80
2017-08-15T07:01:44.508Z,3.97
2017-08-15T07:04:12.575Z,4.00
2017-08-15T07:06:40.655Z,4.03
2017-08-15T07:09:08.737Z,4.23
2017-08-15T07:11:37.059Z,3.50
2017-08-15T07:14:05.133Z,4.03
2017-08-15T07:16:33.211Z,3.70
2017-08-15T07:19:01.279Z,3.97
2017-08-15T07:21:29.370Z,4.33
2017-08-15T07:23:57.442Z,3.97
2017-08-15T07:26:25.522Z,3.63
2017-08-15T07:28:53.807Z,4.33
2017-08-15T07:31:21.883Z,4.23
2017-08-15T07:33:49.954Z,3.80
2017-08-15T07:36:18.039Z,4.37
2017-08-15T07:38:46.124Z,4.13
2017-08-15T07:41:14.190Z,4.73
2017-08-15T07:43:42.276Z,3.60
2017-08-15T07:46:10.356Z,4.63
2017-08-15T07:48:38.436Z,4.40
2017-08-15T07:51:07.288Z,4.30
2017-08-15T07:53:35.483Z,3.63
2017-08-15T07:56:03.624Z,4.10
2017-08-15T07:58:31.824Z,4.03
2017-08-15T08:00:59.890Z,4.27
2017-08-15T08:03:27.971Z,3.67
2017-08-15T08:05:56.058Z,4.67
2017-08-15T08:08:24.148Z,4.30
2017-08-15T08:10:52.224Z,4.20
2017-08-15T08:13:20.299Z,3.67
2017-08-15T08:15:48.388Z,3.70
2017-08-15T08:18:16.455Z,4.80
2017-08-15T08:20:44.530Z,3.97
2017-08-15T08:23:12.601Z,7.20
2017-08-15T08:25:40.680Z,4.00
2017-08-15T08:28:08.746Z,4.10
2017-08-15T08:30:36.828Z,3.63
2017-08-15T08:33:04.913Z,4.63
2017-08-15T08:35:32.989Z,4.37
2017-08-15T08:38:01.993Z,3.80
2017-08-15T08:40:30.886Z,3.70
2017-08-15T08:42:58.960Z,6.00
2017-08-15T08:45:27.053Z,4.57
2017-08-15T08:47:55.139Z,3.90
2017-08-15T08:50:23.215Z,4.73
2017-08-15T08:52:51.300Z,4.20
2017-08-15T08:55:19.388Z,3.87
2017-08-15T08:57:47.464Z,3.80
2017-08-15T09:00:16.315Z,3.90
2017-08-15T09:02:44.391Z,4.60
2017-08-15T09:05:12.459Z,3.50
2017-08-15T09:07:40.557Z,3.30
2017-08-15T09:10:09.419Z,4.23
2017-08-15T09:12:37.499Z,3.90
2017-08-15T09:15:05.676Z,4.03
2017-08-15T09:17:33.949Z,3.93
2017-08-15T09:20:02.047Z,4.07
2017-08-15T09:22:30.131Z,4.43
2017-08-15T09:24:58.199Z,3.50
2017-08-15T09:27:26.275Z,3.97
2017-08-15T09:29:54.350Z,4.30
2017-08-15T09:32:22.429Z,5.20
2017-08-15T09:34:50.520Z,4.20
2017-08-15T09:37:18.595Z,4.10
2017-08-15T09:39:46.686Z,4.70
2017-08-15T09:42:14.763Z,3.93
2017-08-15T09:44:42.839Z,4.33
2017-08-15T09:47:10.918Z,3.60
2017-08-15T09:49:39.888Z,4.10
2017-08-15T09:52:07.968Z,4.07
2017-08-15T09:54:36.065Z,4.63
2017-08-15T09:57:04.150Z,3.60
2017-08-15T09:59:32.228Z,4.80
2017-08-15T10:02:00.306Z,4.60
2017-08-15T10:04:28.387Z,3.87
2017-08-15T10:06:56.467Z,4.00
2017-08-15T10:09:24.545Z,3.53
2017-08-15T10:11:52.650Z,5.03
2017-08-15T10:14:20.731Z,4.27
2017-08-15T10:16:48.816Z,3.60
2017-08-15T10:19:16.896Z,3.97
2017-08-15T10:21:44.986Z,4.10
2017-08-15T10:24:13.071Z,3.83
2017-08-15T10:26:41.147Z,3.97
2017-08-15T10:29:09.224Z,5.00
2017-08-15T10:31:37.298Z,4.03
2017-08-15T10:34:05.384Z,4.40
2017-08-15T10:36:33.465Z,3.90
2017-08-15T10:39:01.538Z,4.00
2017-08-15T10:41:29.626Z,3.97
2017-08-15T10:43:57.715Z,4.07
2017-08-15T10:46:25.812Z,4.23
2017-08-15T10:48:53.897Z,4.20
2017-08-15T10:51:21.985Z,4.40
2017-08-15T10:53:50.061Z,3.80
2017-08-15T10:56:18.147Z,4.27
2017-08-15T10:58:46.225Z,4.40
2017-08-15T11:01:14.334Z,3.83
2017-08-15T11:03:42.419Z,3.97
2017-08-15T11:06:10.499Z,4.33
2017-08-15T11:08:38.571Z,3.93
2017-08-15T11:11:06.639Z,4.10
2017-08-15T11:13:34.720Z,4.97
2017-08-15T11:16:02.816Z,4.43
2017-08-15T11:18:30.896Z,3.93
2017-08-15T11:20:58.966Z,4.20
2017-08-15T11:23:27.044Z,4.37
2017-08-15T11:25:55.123Z,3.97
2017-08-15T11:28:23.200Z,3.47
2017-08-15T11:30:51.289Z,3.97
2017-08-15T11:33:19.383Z,4.03
2017-08-15T11:35:47.465Z,4.50
2017-08-15T11:38:15.543Z,4.57
2017-08-15T11:40:43.619Z,3.20
2017-08-15T11:43:11.699Z,3.40
2017-08-15T11:45:39.787Z,3.70
2017-08-15T11:48:07.859Z,3.50
2017-08-15T11:50:35.956Z,6.70
2017-08-15T11:53:04.026Z,3.80
2017-08-15T11:55:32.115Z,3.40
2017-08-15T11:58:00.186Z,3.23
2017-08-15T12:00:28.275Z,3.30
2017-08-15T12:02:56.354Z,3.70
2017-08-15T12:05:24.440Z,3.77
2017-08-15T12:07:52.520Z,4.03
2017-08-15T12:10:20.615Z,4.10
2017-08-15T12:12:48.687Z,4.93
2017-08-15T12:15:16.767Z,4.33
2017-08-15T12:17:44.842Z,4.10
2017-08-15T12:20:12.913Z,4.50
2017-08-15T12:22:41.026Z,3.93
2017-08-15T12:27:46.310Z,4.27
2017-08-15T12:30:14.386Z,4.53
2017-08-15T12:32:42.458Z,3.80
2017-08-15T12:35:10.537Z,4.07
2017-08-15T12:37:38.612Z,5.10
2017-08-15T12:40:06.685Z,4.83
2017-08-15T12:42:34.771Z,5.23
2017-08-15T12:45:02.844Z,4.47
2017-08-15T12:47:30.923Z,7.17
2017-08-15T12:49:59.009Z,4.63
2017-08-15T12:52:27.102Z,4.43
2017-08-15T12:54:55.192Z,4.60
2017-08-15T12:57:23.288Z,5.50
2017-08-15T12:59:51.358Z,4.90
2017-08-15T13:02:19.436Z,3.93
2017-08-15T13:04:47.512Z,6.03
2017-08-15T13:07:15.585Z,4.73
2017-08-15T13:09:43.662Z,4.13
2017-08-15T13:12:11.734Z,5.00
2017-08-15T13:14:39.814Z,4.97
2017-08-15T13:17:07.894Z,5.47
2017-08-15T13:19:35.970Z,4.13
2017-08-15T13:22:04.042Z,4.50
2017-08-15T13:24:32.132Z,3.90
2017-08-15T13:27:00.216Z,4.07
2017-08-15T13:29:28.307Z,4.07
2017-08-15T13:31:56.382Z,4.33
2017-08-15T13:34:24.471Z,4.33
2017-08-15T13:36:52.549Z,3.90
2017-08-15T13:39:20.630Z,4.33
2017-08-15T13:41:48.727Z,4.40
2017-08-15T13:44:16.812Z,3.90
2017-08-15T13:46:44.907Z,4.47
2017-08-15T13:49:12.978Z,4.27
2017-08-15T13:51:41.075Z,4.27
2017-08-15T13:54:09.149Z,4.47
2017-08-15T13:56:37.229Z,3.60
2017-08-15T13:59:05.295Z,4.60
2017-08-15T14:01:33.372Z,4.30
2017-08-15T14:04:01.437Z,4.27
2017-08-15T14:06:29.549Z,7.67
2017-08-15T14:08:57.612Z,3.90
2017-08-15T14:11:25.688Z,3.97
2017-08-15T14:13:53.778Z,4.00
2017-08-15T14:16:21.859Z,3.90
2017-08-15T14:18:49.943Z,3.70
2017-08-15T14:21:18.012Z,8.63
2017-08-15T14:23:46.098Z,3.70
2017-08-15T14:26:14.188Z,3.37
2017-08-15T14:28:42.293Z,3.57
2017-08-15T14:31:10.380Z,3.43
2017-08-15T14:33:38.474Z,3.57
2017-08-15T14:36:06.556Z,4.03
2017-08-15T14:38:34.630Z,3.87
2017-08-15T14:41:02.699Z,3.33
2017-08-15T14:43:30.793Z,3.97
2017-08-15T14:45:58.934Z,3.13
2017-08-15T14:48:27.011Z,3.40
2017-08-15T14:50:55.096Z,3.73
2017-08-15T14:53:23.162Z,3.13
2017-08-15T14:55:51.255Z,3.27
2017-08-15T14:58:19.342Z,3.40
2017-08-15T15:00:47.421Z,3.07
2017-08-15T15:03:15.523Z,6.03
2017-08-15T15:05:43.776Z,3.83
2017-08-15T15:08:11.855Z,3.33
2017-08-15T15:10:39.927Z,3.40
2017-08-15T15:13:08.005Z,4.00
2017-08-15T15:15:36.095Z,3.67
2017-08-15T15:18:04.936Z,2.87
2017-08-15T15:20:33.139Z,3.20
2017-08-15T15:23:01.219Z,3.07
2017-08-15T15:25:30.084Z,3.23
2017-08-15T15:27:58.154Z,4.43
2017-08-15T15:30:26.235Z,3.63
2017-08-15T15:32:54.323Z,4.20
2017-08-15T15:35:23.187Z,3.80
2017-08-15T15:37:51.264Z,5.40
2017-08-15T15:40:19.335Z,3.70
2017-08-15T15:42:47.433Z,7.07
2017-08-15T15:45:16.285Z,5.37
2017-08-15T15:47:44.364Z,4.13
2017-08-15T15:50:12.450Z,8.80
2017-08-15T15:52:40.536Z,4.00
2017-08-15T15:55:08.608Z,4.63
2017-08-15T15:57:36.707Z,4.63
2017-08-15T16:00:04.778Z,5.27
2017-08-15T16:02:32.872Z,4.07
2017-08-15T16:05:00.981Z,4.80
2017-08-15T16:07:29.046Z,5.03
2017-08-15T16:09:57.143Z,15.23
2017-08-15T16:12:25.253Z,4.70
2017-08-15T16:14:53.344Z,4.13
2017-08-15T16:17:21.420Z,4.67
2017-08-15T16:19:49.508Z,6.93
2017-08-15T16:22:17.585Z,5.03
2017-08-15T16:24:45.685Z,4.73
2017-08-15T16:27:13.763Z,5.00
2017-08-15T16:29:41.943Z,4.50
2017-08-15T16:32:10.036Z,5.27
2017-08-15T16:34:38.130Z,5.30
2017-08-15T16:37:06.199Z,5.13
2017-08-15T16:39:34.290Z,6.27
2017-08-15T16:42:02.367Z,5.83
2017-08-15T16:44:30.444Z,5.13
2017-08-15T16:46:59.452Z,6.20
2017-08-15T16:49:27.527Z,5.27
2017-08-15T16:51:55.612Z,5.80
2017-08-15T16:54:23.689Z,7.93
2017-08-15T16:56:51.772Z,6.33
2017-08-15T16:59:19.835Z,5.30
2017-08-15T17:01:47.923Z,5.50
2017-08-15T17:04:16.006Z,5.50
2017-08-15T17:06:44.100Z,22.27
2017-08-15T17:09:12.188Z,6.57
2017-08-15T17:11:40.268Z,6.97
2017-08-15T17:14:08.334Z,5.10
2017-08-15T17:16:36.420Z,5.67
2017-08-15T17:19:04.500Z,4.80
2017-08-15T17:21:32.586Z,4.87
2017-08-15T17:24:00.651Z,7.20
2017-08-15T17:26:28.902Z,5.20
2017-08-15T17:28:57.174Z,4.23
2017-08-15T17:31:25.250Z,4.87
2017-08-15T17:33:53.525Z,4.30
2017-08-15T17:36:21.605Z,4.60
2017-08-15T17:38:49.683Z,6.00
2017-08-15T17:41:17.819Z,4.60
2017-08-15T17:43:45.904Z,5.40
2017-08-15T17:46:14.083Z,12.33
2017-08-15T17:48:42.169Z,7.13
2017-08-15T17:51:10.247Z,6.27
2017-08-15T17:53:38.344Z,16.60
2017-08-15T17:56:06.418Z,9.17
2017-08-15T17:58:34.507Z,7.77
2017-08-15T18:01:02.595Z,5.10
2017-08-15T18:03:30.730Z,5.47
2017-08-15T18:05:58.802Z,5.80
2017-08-15T18:08:26.888Z,5.30
2017-08-15T18:10:54.973Z,5.20
2017-08-15T18:13:23.052Z,5.50
2017-08-15T18:15:51.131Z,5.70
2017-08-15T18:18:19.203Z,5.20
2017-08-15T18:20:47.335Z,4.97
2017-08-15T18:23:15.403Z,5.77
2017-08-15T18:25:43.574Z,5.23
2017-08-15T18:28:11.670Z,5.30
2017-08-15T18:30:39.907Z,5.17
2017-08-15T18:33:08.155Z,5.60
2017-08-15T18:35:36.590Z,5.33
2017-08-15T18:38:04.748Z,4.73
2017-08-15T18:40:32.815Z,5.57
2017-08-15T18:43:01.165Z,5.93
2017-08-15T18:45:29.376Z,6.37
2017-08-15T18:47:57.947Z,10.37
2017-08-15T18:50:26.230Z,6.77
2017-08-15T18:52:54.620Z,8.20
2017-08-15T18:55:22.779Z,5.77
2017-08-15T18:57:50.916Z,5.70
2017-08-15T19:00:19.116Z,4.80
2017-08-15T19:02:47.456Z,4.73
2017-08-15T19:05:15.745Z,5.57
2017-08-15T19:07:43.958Z,5.20
2017-08-15T19:10:12.486Z,6.33
2017-08-15T19:12:40.724Z,7.10
2017-08-15T19:15:09.190Z,6.80
2017-08-15T19:17:37.545Z,5.70
2017-08-15T19:20:06.011Z,8.30
2017-08-15T19:22:34.472Z,5.60
2017-08-15T19:25:02.879Z,5.23
2017-08-15T19:27:31.184Z,5.50
2017-08-15T19:29:59.549Z,6.10
2017-08-15T19:32:27.828Z,7.60
2017-08-15T19:34:56.092Z,5.93
2017-08-15T19:37:24.432Z,5.40
2017-08-15T19:39:52.638Z,5.67
2017-08-15T19:42:20.719Z,7.00
2017-08-15T19:44:48.803Z,6.83
2017-08-15T19:47:16.894Z,6.13
2017-08-15T19:49:44.964Z,7.60
2017-08-15T19:52:13.056Z,8.67
2017-08-15T19:54:41.139Z,7.50
2017-08-15T19:57:09.226Z,8.37
2017-08-15T19:59:37.307Z,7.50
2017-08-15T20:02:05.382Z,8.77
2017-08-15T20:04:33.460Z,8.50
2017-08-15T20:07:01.545Z,9.17
2017-08-15T20:09:29.615Z,8.53
2017-08-15T20:11:57.688Z,8.80
2017-08-15T20:14:25.801Z,10.20
2017-08-15T20:16:53.884Z,9.50
2017-08-15T20:19:21.965Z,8.20
2017-08-15T20:21:50.045Z,8.40
2017-08-15T20:24:18.124Z,8.83
2017-08-15T20:26:46.200Z,10.00
2017-08-15T20:29:14.290Z,9.90
2017-08-15T20:31:42.359Z,9.40
2017-08-15T20:34:10.420Z,10.90
2017-08-15T20:36:38.484Z,9.53
2017-08-15T20:39:06.551Z,9.80
2017-08-15T20:41:34.612Z,10.00
2017-08-15T20:44:02.672Z,8.10
2017-08-15T20:46:30.816Z,8.67
2017-08-15T20:48:58.929Z,9.00
2017-08-15T20:51:26.991Z,10.00
2017-08-15T20:53:55.144Z,8.80
2017-08-15T20:56:23.269Z,8.73
2017-08-15T20:58:51.392Z,9.43
2017-08-15T21:01:19.559Z,8.63
2017-08-15T21:03:48.809Z,9.40
2017-08-15T21:06:16.871Z,8.77
2017-08-15T21:08:44.967Z,11.67
2017-08-15T21:11:13.057Z,11.20
2017-08-15T21:13:41.131Z,9.00
2017-08-15T21:16:09.229Z,9.00
2017-08-15T21:18:37.299Z,9.30
2017-08-15T21:21:05.380Z,9.03
2017-08-15T21:23:33.456Z,10.60
2017-08-15T21:26:01.541Z,9.10
2017-08-15T21:28:29.604Z,12.63
2017-08-15T21:30:57.682Z,13.10
2017-08-15T21:33:26.620Z,12.07
2017-08-15T21:35:54.684Z,9.93
2017-08-15T21:38:22.748Z,13.00
2017-08-15T21:40:50.828Z,11.67
2017-08-15T21:43:18.900Z,11.63
2017-08-15T21:45:46.973Z,11.53
2017-08-15T21:48:15.049Z,12.00
2017-08-15T21:50:43.120Z,11.00
2017-08-15T21:53:11.193Z,11.63
2017-08-15T21:55:39.279Z,11.63
2017-08-15T21:58:07.385Z,13.10
2017-08-15T22:00:35.471Z,13.60
2017-08-15T22:03:03.565Z,14.83
2017-08-15T22:05:31.639Z,12.83
2017-08-15T22:08:00.504Z,15.83
2017-08-15T22:10:28.593Z,12.97
2017-08-15T22:12:57.444Z,13.27
2017-08-15T22:15:25.645Z,12.57
2017-08-15T22:17:53.731Z,10.77
2017-08-15T22:20:21.816Z,9.83
2017-08-15T22:22:49.896Z,10.80
2017-08-15T22:25:17.968Z,11.03
2017-08-15T22:27:46.048Z,9.10
2017-08-15T22:30:14.135Z,11.30
2017-08-15T22:32:42.228Z,9.03
2017-08-15T22:35:10.299Z,8.80
2017-08-15T22:37:38.378Z,8.40
2017-08-15T22:40:06.559Z,8.80
2017-08-15T22:42:34.815Z,10.67
2017-08-15T22:45:02.904Z,7.43
2017-08-15T22:47:30.979Z,7.07
2017-08-15T22:49:59.054Z,7.40
2017-08-15T22:52:27.143Z,9.23
2017-08-15T22:54:55.218Z,9.43
2017-08-15T22:57:23.294Z,8.90
2017-08-15T22:59:51.367Z,9.50
2017-08-15T23:02:19.440Z,9.37
2017-08-15T23:04:47.615Z,7.80
2017-08-15T23:07:15.696Z,8.27
2017-08-15T23:09:43.821Z,8.13
2017-08-15T23:12:11.906Z,8.03
2017-08-15T23:14:39.998Z,8.17
2017-08-15T23:17:08.077Z,7.97
2017-08-15T23:19:36.159Z,8.50
2017-08-15T23:22:04.519Z,7.57
2017-08-15T23:24:32.833Z,8.47
2017-08-15T23:27:01.095Z,7.63
2017-08-15T23:29:29.246Z,6.83
2017-08-15T23:31:57.336Z,7.60
2017-08-15T23:34:25.416Z,7.13
2017-08-15T23:36:53.496Z,6.97
2017-08-15T23:39:22.467Z,7.50
2017-08-15T23:41:50.544Z,7.50
2017-08-15T23:44:18.614Z,7.27
2017-08-15T23:46:46.705Z,9.40
2017-08-15T23:49:14.775Z,7.60
2017-08-15T23:51:42.861Z,8.77
2017-08-15T23:54:11.104Z,9.43
2017-08-15T23:56:39.263Z,7.70
2017-08-15T23:59:07.354Z,10.67
